createdAt,value
2022-12-13T00:01:23.029Z,29.17
2022-12-13T00:03:52.166Z,28.80
2022-12-13T00:06:19.123Z,30.40
2022-12-13T00:08:45.976Z,30.20
2022-12-13T00:11:14.860Z,26.50
2022-12-13T00:13:42.724Z,29.48
2022-12-13T00:16:15.296Z,30.67
2022-12-13T00:18:42.505Z,31.13
2022-12-13T00:21:13.659Z,29.25
2022-12-13T00:23:40.435Z,31.10
2022-12-13T00:26:10.930Z,28.25
2022-12-13T00:28:38.095Z,36.00
2022-12-13T00:31:35.227Z,28.48
2022-12-13T00:33:52.465Z,25.83
2022-12-13T00:36:19.295Z,28.52
2022-12-13T00:38:46.548Z,26.85
2022-12-13T00:41:18.612Z,27.38
2022-12-13T00:43:46.156Z,29.52
2022-12-13T00:46:18.893Z,29.05
2022-12-13T00:48:50.480Z,26.83
2022-12-13T00:51:17.324Z,28.98
2022-12-13T00:53:44.211Z,32.45
2022-12-13T00:56:13.039Z,28.95
2022-12-13T00:58:40.595Z,29.13
2022-12-13T01:01:11.149Z,34.08
2022-12-13T01:03:38.140Z,33.97
2022-12-13T01:06:15.367Z,27.52
2022-12-13T01:08:43.403Z,31.83
2022-12-13T01:11:10.998Z,32.78
2022-12-13T01:13:39.287Z,28.17
2022-12-13T01:16:08.035Z,28.90
2022-12-13T01:18:35.251Z,37.03
2022-12-13T01:21:16.498Z,36.97
2022-12-13T01:23:43.993Z,29.83
2022-12-13T01:26:14.521Z,31.95
2022-12-13T01:28:41.306Z,30.08
2022-12-13T01:31:11.496Z,33.90
2022-12-13T01:33:39.126Z,32.42
2022-12-13T01:36:10.569Z,34.67
2022-12-13T01:38:38.110Z,33.63
2022-12-13T01:41:17.183Z,30.48
2022-12-13T01:43:51.057Z,33.10
2022-12-13T01:46:19.117Z,34.22
2022-12-13T01:49:06.099Z,33.40
2022-12-13T01:54:25.677Z,31.67
2022-12-13T01:57:04.462Z,29.02
2022-12-13T01:59:31.552Z,31.85
2022-12-13T02:02:00.909Z,35.17
2022-12-13T02:04:50.659Z,33.85
2022-12-13T02:07:23.260Z,34.00
2022-12-13T02:09:57.016Z,36.70
2022-12-13T02:12:30.324Z,31.48
2022-12-13T02:15:12.524Z,33.22
2022-12-13T02:18:07.317Z,33.63
2022-12-13T02:20:58.816Z,29.15
2022-12-13T02:24:09.142Z,33.40
2022-12-13T02:26:54.594Z,35.88
2022-12-13T02:29:31.513Z,27.08
2022-12-13T02:32:08.782Z,32.35
2022-12-13T02:34:44.606Z,33.80
2022-12-13T02:37:50.116Z,31.35
2022-12-13T02:40:23.755Z,31.02
2022-12-13T02:43:06.269Z,31.67
2022-12-13T02:45:44.923Z,34.85
2022-12-13T02:48:13.937Z,32.80
2022-12-13T02:50:41.593Z,35.25
2022-12-13T02:53:11.287Z,34.75
2022-12-13T02:55:39.700Z,35.40
2022-12-13T02:58:07.010Z,35.50
2022-12-13T03:00:55.737Z,33.63
2022-12-13T03:03:43.424Z,32.42
2022-12-13T03:06:42.492Z,31.38
2022-12-13T03:09:30.828Z,35.53
2022-12-13T03:12:22.187Z,31.67
2022-12-13T03:15:15.517Z,32.25
2022-12-13T03:17:54.550Z,33.90
2022-12-13T03:20:25.904Z,34.50
2022-12-13T03:22:54.108Z,32.05
2022-12-13T03:25:31.419Z,33.53
2022-12-13T03:28:03.065Z,33.60
2022-12-13T03:30:31.950Z,32.78
2022-12-13T03:32:58.906Z,32.83
2022-12-13T03:35:25.948Z,32.90
2022-12-13T03:38:02.295Z,33.25
2022-12-13T03:40:30.183Z,30.77
2022-12-13T03:42:57.013Z,37.13
2022-12-13T03:45:23.914Z,35.85
2022-12-13T03:47:50.759Z,33.83
2022-12-13T03:50:26.307Z,35.22
2022-12-13T03:53:01.825Z,31.63
2022-12-13T03:55:29.018Z,32.60
2022-12-13T03:57:56.136Z,38.78
2022-12-13T04:00:22.977Z,32.88
2022-12-13T04:02:49.808Z,37.58
2022-12-13T04:05:16.928Z,34.15
2022-12-13T04:07:48.331Z,36.33
2022-12-13T04:10:25.448Z,35.55
2022-12-13T04:13:12.955Z,34.67
2022-12-13T04:15:40.171Z,31.55
2022-12-13T04:18:07.372Z,32.30
2022-12-13T04:20:34.045Z,35.55
2022-12-13T04:23:00.875Z,35.90
2022-12-13T04:25:37.880Z,28.45
2022-12-13T04:28:04.685Z,33.03
2022-12-13T04:30:31.437Z,30.92
2022-12-13T04:32:58.135Z,34.30
2022-12-13T04:35:24.896Z,38.42
2022-12-13T04:37:51.808Z,32.72
2022-12-13T04:40:21.793Z,38.63
2022-12-13T04:42:54.154Z,30.77
2022-12-13T04:45:22.703Z,43.90
2022-12-13T04:47:49.869Z,31.42
2022-12-13T04:50:16.676Z,34.38
2022-12-13T04:52:44.287Z,34.53
2022-12-13T04:55:11.438Z,32.55
2022-12-13T04:57:38.630Z,32.00
2022-12-13T05:02:38.574Z,43.05
2022-12-13T05:05:05.623Z,35.13
2022-12-13T05:07:32.338Z,36.67
2022-12-13T05:09:59.087Z,37.57
2022-12-13T05:12:25.844Z,29.60
2022-12-13T05:14:53.706Z,34.47
2022-12-13T05:17:20.896Z,32.58
2022-12-13T05:19:47.736Z,31.65
2022-12-13T05:22:20.734Z,44.65
2022-12-13T05:24:47.941Z,34.03
2022-12-13T05:27:25.755Z,29.05
2022-12-13T05:30:02.859Z,30.23
2022-12-13T05:32:43.182Z,27.83
2022-12-13T05:35:13.793Z,29.17
2022-12-13T05:37:41.287Z,26.20
2022-12-13T05:40:08.764Z,25.95
2022-12-13T05:42:37.862Z,29.08
2022-12-13T05:45:08.862Z,25.58
2022-12-13T05:47:35.643Z,30.35
2022-12-13T05:50:02.409Z,34.30
2022-12-13T05:52:30.551Z,29.70
2022-12-13T05:55:00.988Z,33.42
2022-12-13T05:57:28.204Z,32.28
2022-12-13T05:59:54.994Z,32.90
2022-12-13T06:02:23.355Z,45.78
2022-12-13T06:04:50.349Z,30.23
2022-12-13T06:07:17.142Z,34.30
2022-12-13T06:09:43.877Z,32.03
2022-12-13T06:12:31.107Z,31.27
2022-12-13T06:15:00.853Z,27.95
2022-12-13T06:20:24.206Z,23.48
2022-12-13T06:22:52.011Z,29.85
2022-12-13T06:25:31.148Z,27.25
2022-12-13T06:28:01.032Z,32.23
2022-12-13T06:30:31.523Z,27.25
2022-12-13T06:32:58.362Z,30.60
2022-12-13T06:35:29.910Z,26.77
2022-12-13T06:38:01.300Z,27.92
2022-12-13T06:40:30.175Z,31.20
2022-12-13T06:42:57.209Z,31.80
2022-12-13T06:45:23.925Z,28.08
2022-12-13T06:47:50.625Z,26.70
2022-12-13T06:50:17.624Z,27.73
2022-12-13T06:52:46.351Z,29.33
2022-12-13T06:55:13.514Z,28.38
2022-12-13T06:57:41.188Z,25.65
2022-12-13T07:00:09.500Z,30.08
2022-12-13T07:02:38.219Z,28.50
2022-12-13T07:05:05.613Z,27.38
2022-12-13T07:07:32.531Z,32.00
2022-12-13T07:09:59.424Z,27.58
2022-12-13T07:12:26.416Z,25.88
2022-12-13T07:14:53.189Z,27.40
2022-12-13T07:17:32.935Z,29.08
2022-12-13T07:20:08.441Z,27.60
2022-12-13T07:22:39.889Z,28.00
2022-12-13T07:25:28.515Z,31.48
2022-12-13T07:28:07.998Z,30.25
2022-12-13T07:30:40.767Z,35.90
2022-12-13T07:33:08.670Z,32.50
2022-12-13T07:35:36.911Z,30.60
2022-12-13T07:38:04.200Z,33.83
2022-12-13T07:40:32.962Z,36.25
2022-12-13T07:42:59.777Z,33.13
2022-12-13T07:45:26.816Z,28.50
2022-12-13T07:47:53.748Z,32.63
2022-12-13T07:50:24.338Z,31.83
2022-12-13T07:52:52.511Z,36.50
2022-12-13T07:55:23.019Z,30.13
2022-12-13T07:57:50.412Z,37.33
2022-12-13T08:00:17.509Z,34.30
2022-12-13T08:02:44.242Z,29.65
2022-12-13T08:05:26.005Z,31.08
2022-12-13T08:07:54.143Z,29.52
2022-12-13T08:10:21.221Z,27.98
2022-12-13T08:12:48.138Z,31.38
2022-12-13T08:15:14.898Z,27.77
2022-12-13T08:17:42.100Z,30.67
2022-12-13T08:20:09.836Z,28.95
2022-12-13T08:22:36.543Z,27.33
2022-12-13T08:25:03.823Z,31.97
2022-12-13T08:27:30.749Z,34.85
2022-12-13T08:29:57.433Z,30.58
2022-12-13T08:32:24.566Z,30.48
2022-12-13T08:34:51.373Z,31.30
2022-12-13T08:37:18.676Z,29.17
2022-12-13T08:39:45.428Z,29.98
2022-12-13T08:42:18.297Z,29.60
2022-12-13T08:44:51.351Z,27.45
2022-12-13T08:47:25.860Z,28.30
2022-12-13T08:50:02.825Z,24.90
2022-12-13T08:52:39.242Z,30.85
2022-12-13T08:55:07.052Z,30.92
2022-12-13T08:57:36.444Z,24.25
2022-12-13T09:00:08.147Z,25.38
2022-12-13T09:02:38.327Z,26.17
2022-12-13T09:05:07.369Z,32.13
2022-12-13T09:07:36.113Z,27.23
2022-12-13T09:10:07.079Z,27.77
2022-12-13T09:12:51.399Z,25.70
2022-12-13T09:15:21.952Z,26.58
2022-12-13T09:17:52.778Z,28.23
2022-12-13T09:20:28.771Z,30.00
2022-12-13T09:23:02.262Z,29.92
2022-12-13T09:25:37.157Z,29.30
2022-12-13T09:28:08.506Z,29.02
2022-12-13T09:30:38.455Z,28.42
2022-12-13T09:33:28.617Z,25.27
2022-12-13T09:35:52.830Z,31.42
2022-12-13T09:38:20.010Z,28.88
2022-12-13T09:40:49.218Z,31.85
2022-12-13T09:43:31.657Z,26.35
2022-12-13T09:46:04.479Z,25.45
2022-12-13T09:48:40.938Z,32.85
2022-12-13T09:51:27.242Z,30.00
2022-12-13T09:53:57.025Z,26.50
2022-12-13T09:56:24.806Z,25.77
2022-12-13T09:58:59.361Z,29.88
2022-12-13T10:01:26.173Z,26.05
2022-12-13T10:03:55.859Z,22.63
2022-12-13T10:06:25.026Z,25.65
2022-12-13T10:08:57.746Z,26.00
2022-12-13T10:11:31.454Z,23.95
2022-12-13T10:14:02.290Z,21.33
2022-12-13T10:16:36.236Z,22.95
2022-12-13T10:19:29.426Z,22.40
2022-12-13T10:22:02.252Z,19.17
2022-12-13T10:25:00.187Z,18.52
2022-12-13T10:27:43.148Z,26.48
2022-12-13T10:30:11.827Z,22.23
2022-12-13T10:32:59.710Z,21.92
2022-12-13T10:35:26.514Z,20.33
2022-12-13T10:37:54.012Z,21.02
2022-12-13T10:40:32.548Z,21.67
2022-12-13T10:43:21.089Z,22.65
2022-12-13T10:45:59.976Z,20.42
2022-12-13T10:48:38.430Z,22.75
2022-12-13T10:51:12.385Z,22.95
2022-12-13T10:53:48.296Z,20.73
2022-12-13T10:56:23.228Z,21.83
2022-12-13T10:59:15.119Z,26.10
2022-12-13T11:01:44.522Z,28.25
2022-12-13T11:04:26.935Z,21.45
2022-12-13T11:06:54.695Z,22.45
2022-12-13T11:09:38.148Z,20.60
2022-12-13T11:12:14.574Z,20.88
2022-12-13T11:15:03.311Z,22.52
2022-12-13T11:17:33.459Z,23.60
2022-12-13T11:20:06.833Z,17.13
2022-12-13T11:22:39.705Z,21.10
2022-12-13T11:25:19.254Z,19.80
2022-12-13T11:28:26.314Z,18.88
2022-12-13T11:31:09.385Z,16.90
2022-12-13T11:33:51.632Z,18.90
2022-12-13T11:36:56.475Z,20.67
2022-12-13T11:39:36.950Z,18.33
2022-12-13T11:42:22.549Z,18.80
2022-12-13T11:45:22.934Z,18.83
2022-12-13T11:47:58.459Z,19.45
2022-12-13T11:50:40.052Z,18.75
2022-12-13T11:53:28.681Z,19.50
2022-12-13T11:56:14.265Z,25.48
2022-12-13T11:59:04.949Z,17.20
2022-12-13T12:01:41.319Z,21.10
2022-12-13T12:04:34.534Z,24.23
2022-12-13T12:07:31.997Z,19.35
2022-12-13T12:10:13.699Z,19.85
2022-12-13T12:12:45.858Z,22.08
2022-12-13T12:15:44.920Z,21.95
2022-12-13T12:18:16.562Z,22.52
2022-12-13T12:20:46.125Z,27.17
2022-12-13T12:23:25.463Z,18.77
2022-12-13T12:26:03.571Z,20.50
2022-12-13T12:28:30.273Z,28.05
2022-12-13T12:30:56.976Z,29.67
2022-12-13T12:33:50.577Z,22.60
2022-12-13T12:36:42.944Z,22.13
2022-12-13T12:39:40.252Z,20.30
2022-12-13T12:42:23.651Z,32.40
2022-12-13T12:44:53.325Z,27.92
2022-12-13T12:50:43.364Z,24.95
2022-12-13T12:53:28.642Z,25.00
2022-12-13T12:56:34.890Z,26.90
2022-12-13T12:59:12.498Z,30.20
2022-12-13T13:01:59.617Z,19.38
2022-12-13T13:04:32.104Z,23.17
2022-12-13T13:07:23.367Z,26.25
2022-12-13T13:09:54.948Z,17.45
2022-12-13T13:12:29.713Z,26.85
2022-12-13T13:15:00.561Z,19.75
2022-12-13T13:17:27.250Z,21.85
2022-12-13T13:20:01.602Z,22.30
2022-12-13T13:22:43.537Z,20.45
2022-12-13T13:25:32.480Z,17.42
2022-12-13T13:28:05.337Z,22.33
2022-12-13T13:30:33.824Z,22.50
2022-12-13T13:33:00.871Z,18.25
2022-12-13T13:35:33.480Z,15.55
2022-12-13T13:38:24.829Z,22.63
2022-12-13T13:40:52.071Z,22.10
2022-12-13T13:43:32.644Z,21.90
2022-12-13T13:48:48.632Z,23.48
2022-12-13T13:51:49.428Z,21.83
2022-12-13T13:54:37.153Z,18.08
2022-12-13T13:57:45.610Z,22.10
2022-12-13T14:00:38.873Z,18.75
2022-12-13T14:03:53.286Z,18.77
2022-12-13T14:06:37.494Z,23.73
2022-12-13T14:09:42.550Z,20.45
2022-12-13T14:12:31.121Z,23.98
2022-12-13T14:15:28.716Z,28.95
2022-12-13T14:18:14.179Z,22.80
2022-12-13T14:21:04.183Z,26.33
2022-12-13T14:23:39.449Z,21.63
2022-12-13T14:26:51.511Z,21.50
2022-12-13T14:29:33.461Z,19.23
2022-12-13T14:32:00.920Z,23.75
2022-12-13T14:34:30.567Z,27.38
2022-12-13T14:36:59.206Z,19.20
2022-12-13T14:39:26.279Z,21.90
2022-12-13T14:41:56.396Z,27.05
2022-12-13T14:44:29.634Z,19.98
2022-12-13T14:47:06.462Z,27.08
2022-12-13T14:49:36.017Z,21.75
2022-12-13T14:52:28.963Z,21.17
2022-12-13T14:54:59.661Z,24.98
2022-12-13T14:57:29.565Z,17.58
2022-12-13T14:59:58.929Z,18.20
2022-12-13T15:02:30.062Z,24.27
2022-12-13T15:05:01.121Z,19.13
2022-12-13T15:07:57.672Z,20.38
2022-12-13T15:10:32.511Z,21.65
2022-12-13T15:13:03.644Z,22.00
2022-12-13T15:18:36.352Z,21.02
2022-12-13T15:24:31.883Z,22.42
2022-12-13T15:27:06.404Z,19.27
2022-12-13T15:29:51.717Z,22.08
2022-12-13T15:32:22.786Z,25.80
2022-12-13T15:34:55.863Z,23.45
2022-12-13T15:37:34.888Z,20.27
2022-12-13T15:46:16.246Z,21.38
2022-12-13T15:48:48.455Z,27.38
2022-12-13T15:51:28.860Z,25.42
2022-12-13T15:54:23.627Z,20.75
2022-12-13T15:57:23.593Z,21.33
2022-12-13T16:00:39.033Z,20.90
2022-12-13T16:03:22.209Z,24.65
2022-12-13T16:06:04.132Z,21.50
2022-12-13T16:08:39.295Z,23.92
2022-12-13T16:11:09.197Z,25.77
2022-12-13T16:13:39.969Z,24.63
2022-12-13T16:16:35.680Z,19.35
2022-12-13T16:19:21.411Z,29.17
2022-12-13T16:21:57.252Z,24.38
2022-12-13T16:24:27.686Z,26.00
2022-12-13T16:26:55.447Z,29.45
2022-12-13T16:29:22.765Z,24.10
2022-12-13T16:31:57.078Z,27.23
2022-12-13T16:34:42.230Z,28.67
2022-12-13T16:37:26.373Z,28.58
2022-12-13T16:40:02.180Z,28.27
2022-12-13T16:42:29.556Z,30.38
2022-12-13T16:45:32.289Z,27.55
2022-12-13T16:47:49.252Z,24.90
2022-12-13T16:50:20.620Z,26.33
2022-12-13T16:52:50.365Z,28.85
2022-12-13T16:55:30.250Z,25.45
2022-12-13T16:58:12.760Z,23.33
2022-12-13T17:00:44.607Z,25.65
2022-12-13T17:03:15.942Z,23.40
2022-12-13T17:05:48.186Z,21.58
2022-12-13T17:08:28.216Z,25.65
2022-12-13T17:10:57.976Z,25.40
2022-12-13T17:13:40.638Z,27.52
2022-12-13T17:16:08.154Z,24.38
2022-12-13T17:18:35.876Z,24.30
2022-12-13T17:21:11.975Z,26.02
2022-12-13T17:23:41.823Z,27.80
2022-12-13T17:26:18.822Z,26.50
2022-12-13T17:28:48.485Z,31.98
2022-12-13T17:31:19.605Z,30.90
2022-12-13T17:33:47.870Z,24.60
2022-12-13T17:36:31.905Z,24.98
2022-12-13T17:39:05.218Z,24.85
2022-12-13T17:41:33.572Z,31.40
2022-12-13T17:44:03.550Z,23.75
2022-12-13T17:46:33.606Z,27.50
2022-12-13T17:49:01.198Z,26.83
2022-12-13T17:51:28.514Z,27.05
2022-12-13T17:53:57.485Z,26.25
2022-12-13T17:56:26.561Z,25.73
2022-12-13T17:58:57.542Z,24.55
2022-12-13T18:01:30.045Z,22.52
2022-12-13T18:04:04.136Z,28.73
2022-12-13T18:06:33.773Z,26.15
2022-12-13T18:09:02.200Z,28.48
2022-12-13T18:11:33.762Z,28.58
2022-12-13T18:14:08.747Z,29.02
2022-12-13T18:16:39.000Z,28.90
2022-12-13T18:19:15.129Z,29.85
2022-12-13T18:21:47.083Z,21.73
2022-12-13T18:24:15.081Z,32.45
2022-12-13T18:26:44.556Z,24.20
2022-12-13T18:29:11.348Z,24.52
2022-12-13T18:31:38.661Z,25.92
2022-12-13T18:34:09.505Z,25.15
2022-12-13T18:36:39.993Z,26.20
2022-12-13T18:39:16.075Z,20.23
2022-12-13T18:41:48.357Z,22.92
2022-12-13T18:44:21.368Z,26.35
2022-12-13T18:46:50.633Z,25.92
2022-12-13T18:49:17.473Z,29.60
2022-12-13T18:51:45.363Z,28.88
2022-12-13T18:54:13.759Z,23.63
2022-12-13T18:56:48.044Z,25.02
2022-12-13T18:59:16.432Z,24.27
2022-12-13T19:01:44.594Z,27.38
2022-12-13T19:04:14.041Z,21.13
2022-12-13T19:06:48.253Z,21.27
2022-12-13T19:09:16.423Z,23.53
2022-12-13T19:11:45.628Z,37.50
2022-12-13T19:14:26.989Z,29.77
2022-12-13T19:16:57.808Z,24.77
2022-12-13T19:19:25.194Z,26.20
2022-12-13T19:21:53.011Z,23.30
2022-12-13T19:24:30.443Z,25.70
2022-12-13T19:26:59.883Z,25.50
2022-12-13T19:29:32.405Z,25.35
2022-12-13T19:32:04.685Z,25.42
2022-12-13T19:34:32.128Z,22.80
2022-12-13T19:37:06.884Z,31.45
2022-12-13T19:39:38.648Z,27.48
2022-12-13T19:42:17.271Z,28.70
2022-12-13T19:44:48.387Z,28.20
2022-12-13T19:47:19.843Z,26.38
2022-12-13T19:49:47.533Z,25.65
2022-12-13T19:52:21.506Z,27.20
2022-12-13T19:54:56.061Z,28.65
2022-12-13T19:57:24.517Z,24.15
2022-12-13T19:59:52.832Z,30.88
2022-12-13T20:02:21.017Z,32.75
2022-12-13T20:04:50.856Z,29.20
2022-12-13T20:07:18.249Z,28.55
2022-12-13T20:09:52.531Z,34.30
2022-12-13T20:12:24.703Z,29.23
2022-12-13T20:14:52.085Z,29.65
2022-12-13T20:17:21.238Z,28.52
2022-12-13T20:19:48.348Z,29.67
2022-12-13T20:22:17.703Z,24.45
2022-12-13T20:24:51.653Z,28.73
2022-12-13T20:27:21.938Z,27.88
2022-12-13T20:29:51.881Z,26.52
2022-12-13T20:34:54.487Z,25.30
2022-12-13T20:37:23.864Z,24.60
2022-12-13T20:39:53.873Z,25.98
2022-12-13T20:42:29.121Z,26.77
2022-12-13T20:45:01.682Z,25.65
2022-12-13T20:47:37.820Z,26.92
2022-12-13T20:50:06.122Z,25.98
2022-12-13T20:52:49.142Z,28.23
2022-12-13T20:55:21.705Z,25.75
2022-12-13T21:00:20.453Z,24.65
2022-12-13T21:02:49.042Z,23.08
2022-12-13T21:05:20.988Z,23.50
2022-12-13T21:08:08.329Z,24.70
2022-12-13T21:10:39.205Z,25.48
2022-12-13T21:13:08.589Z,21.25
2022-12-13T21:15:43.402Z,25.08
2022-12-13T21:18:13.220Z,22.38
2022-12-13T21:20:42.945Z,23.42
2022-12-13T21:23:12.158Z,21.60
2022-12-13T21:25:39.085Z,26.77
2022-12-13T21:28:07.610Z,22.30
2022-12-13T21:30:38.476Z,22.70
2022-12-13T21:33:10.145Z,22.77
2022-12-13T21:35:44.739Z,22.70
2022-12-13T21:38:12.370Z,22.27
2022-12-13T21:40:49.050Z,20.45
2022-12-13T21:43:37.049Z,22.42
2022-12-13T21:46:11.603Z,18.95
2022-12-13T21:48:44.391Z,19.35
2022-12-13T21:51:15.569Z,19.65
2022-12-13T21:53:44.364Z,22.65
2022-12-13T21:56:41.824Z,20.73
2022-12-13T22:02:16.755Z,21.38
2022-12-13T22:04:55.167Z,24.20
2022-12-13T22:07:31.307Z,20.48
2022-12-13T22:12:46.114Z,19.50
2022-12-13T22:15:16.855Z,25.85
2022-12-13T22:17:50.553Z,18.25
2022-12-13T22:20:18.679Z,23.85
2022-12-13T22:22:48.697Z,17.00
2022-12-13T22:25:22.696Z,21.40
2022-12-13T22:27:52.152Z,15.57
2022-12-13T22:30:22.531Z,18.27
2022-12-13T22:32:54.450Z,16.05
2022-12-13T22:35:21.842Z,14.93
2022-12-13T22:38:00.131Z,17.27
2022-12-13T22:40:32.351Z,15.13
2022-12-13T22:43:05.675Z,17.55
2022-12-13T22:45:38.067Z,15.95
2022-12-13T22:48:06.436Z,18.90
2022-12-13T22:50:33.921Z,15.25
2022-12-13T22:53:05.122Z,21.42
2022-12-13T22:55:34.406Z,15.65
2022-12-13T22:58:11.019Z,17.77
2022-12-13T23:00:40.801Z,17.77
2022-12-13T23:03:08.869Z,20.60
2022-12-13T23:05:38.555Z,19.58
2022-12-13T23:08:12.523Z,17.35
2022-12-13T23:10:58.248Z,18.20
2022-12-13T23:13:27.190Z,18.25
2022-12-13T23:16:07.609Z,17.45
2022-12-13T23:18:35.602Z,20.08
2022-12-13T23:21:03.649Z,18.65
2022-12-13T23:23:32.170Z,17.42
2022-12-13T23:26:25.001Z,20.25
2022-12-13T23:28:58.311Z,17.90
2022-12-13T23:31:29.639Z,19.33
2022-12-13T23:34:00.243Z,17.67
2022-12-13T23:36:32.012Z,19.73
2022-12-13T23:39:05.169Z,15.98
2022-12-13T23:41:35.289Z,18.33
2022-12-13T23:44:06.738Z,16.00
2022-12-13T23:46:39.644Z,15.27
2022-12-13T23:49:09.499Z,15.55
2022-12-13T23:51:40.157Z,15.90
2022-12-13T23:54:09.837Z,17.75
2022-12-13T23:56:38.700Z,17.02
2022-12-13T23:59:07.955Z,18.87
